Parsons, TN (38363)

10:28 AM CDT on September 02, 2014 (GMT -0500)
ParsonsWeather.com | Change Station
CLOSE
Current Station
Personal Weather Station
Location: Parsons, TN
Elevation: 494 ft
Nearby Weather Stations

Elev 494 ft 35.65 °N, 88.13 °W | Updated 3 seconds ago

Mostly Cloudy
Mostly Cloudy
84.3 °F
Feels Like 92 °F
N
0.0
Wind Variable Wind from West
Gusts 1.0 mph

Today
High -- | Low -- °F
--% Chance of Precip.
Yesterday
High -- | Low -- °F
Precip. -- in
6:25 AM 7:18 PM
First Quarter, 52% visible
Pressure 30.04 in
Visibility 10.0 miles
Clouds Mostly Cloudy 1600 ft
Overcast 2100 ft
Heat Index 92 °F
Dew Point 74 °F
Humidity 72%
Rainfall 0.00 in
Snow Depth Not available.
UV 2 out of 12
Pollen 10.00 out of 12
Air Quality Not available.
Flu Activity Not available.
METAR KMKL 021453Z VRB05KT 10SM BKN016 OVC021 28/24 A3005 RMK AO2 SLP171 T02780239 53009

More Conditions Fewer Conditions

Pressure 30.04 in
Visibility 10.0 miles
Clouds Mostly Cloudy 1600 ft
Overcast 2100 ft
Heat Index 92 °F
Dew Point 74 °F
Humidity 72%
Rainfall 0.00 in
Snow Depth Not available.
UV 2 out of 12
Pollen 10.00 out of 12
Air Quality Not available.
Flu Activity Not available.
METAR KMKL 021453Z VRB05KT 10SM BKN016 OVC021 28/24 A3005 RMK AO2 SLP171 T02780239 53009

More Conditions Fewer Conditions

10-Day Weather Forecast

Almanac

Astronomy

Sep. 02, 2014 Rise Set
Actual Time 6:25 AM CDT 7:18 PM CDT
Civil Twilight 5:59 AM CDT 7:44 PM CDT
Nautical Twilight 5:28 AM CDT 8:15 PM CDT
Astronomical Twilight 4:56 AM CDT 8:46 PM CDT
Moon 1:55 PM CDT No Moon Set
Length of Visible Light 13h 44m
Length of Day
12h 52m
Tomorrow will be 2m 10s shorter.
First Quarter, 52% of the Moon is Illuminated
Today
First Quarter
Sep 8
Full
Sep 15
Last Quarter
Sep 24
New
Oct 1
First Quarter

Today's Extremes

State Highs State Lows

Community

WunderPhotos

Upload Photos

1,749,690 photos uploaded!

Nearby

Snow Depth

Station Depth Elevation
No new snow has been reported.

Earthquake Activity

City Distance Mag. Time & Date
Tiptonville, Tennessee 93 miles 2.9 11:19 PM CDT
2014-08-31
Minimum magnitude displayed is 2.5.

Coastal Water Temperatures

Place Temperature
No Stations Reporting

Nearby Weather Stations